sensor_id;sensor_type;location;lat;lon;timestamp;temperature;humidity
73137;DHT22;62977;45.636;11.750;2022-12-07T00:00:30;2.90;86.10
73137;DHT22;62977;45.636;11.750;2022-12-07T00:02:56;2.90;86.50
73137;DHT22;62977;45.636;11.750;2022-12-07T00:05:22;3.10;85.90
73137;DHT22;62977;45.636;11.750;2022-12-07T00:07:47;3.10;86.30
73137;DHT22;62977;45.636;11.750;2022-12-07T00:10:14;2.90;86.00
73137;DHT22;62977;45.636;11.750;2022-12-07T00:12:40;2.80;86.20
73137;DHT22;62977;45.636;11.750;2022-12-07T00:15:06;3.20;86.20
73137;DHT22;62977;45.636;11.750;2022-12-07T00:17:32;2.90;86.10
73137;DHT22;62977;45.636;11.750;2022-12-07T00:19:59;2.80;86.10
73137;DHT22;62977;45.636;11.750;2022-12-07T00:22:24;2.60;86.30
73137;DHT22;62977;45.636;11.750;2022-12-07T00:24:50;2.80;86.20
73137;DHT22;62977;45.636;11.750;2022-12-07T00:27:16;2.70;86.20
73137;DHT22;62977;45.636;11.750;2022-12-07T00:29:41;2.50;86.30
73137;DHT22;62977;45.636;11.750;2022-12-07T00:32:07;2.80;86.40
73137;DHT22;62977;45.636;11.750;2022-12-07T00:34:33;2.70;86.60
73137;DHT22;62977;45.636;11.750;2022-12-07T00:36:58;2.90;86.50
73137;DHT22;62977;45.636;11.750;2022-12-07T00:39:24;2.70;86.10
73137;DHT22;62977;45.636;11.750;2022-12-07T00:41:49;2.70;86.00
73137;DHT22;62977;45.636;11.750;2022-12-07T00:44:15;2.80;86.20
73137;DHT22;62977;45.636;11.750;2022-12-07T00:46:41;2.90;85.90
73137;DHT22;62977;45.636;11.750;2022-12-07T00:49:07;3.00;86.00
73137;DHT22;62977;45.636;11.750;2022-12-07T00:51:32;2.90;86.40
73137;DHT22;62977;45.636;11.750;2022-12-07T00:53:58;3.00;86.60
73137;DHT22;62977;45.636;11.750;2022-12-07T00:56:27;3.00;86.70
73137;DHT22;62977;45.636;11.750;2022-12-07T00:58:58;2.80;86.30
73137;DHT22;62977;45.636;11.750;2022-12-07T01:01:26;2.80;86.50
73137;DHT22;62977;45.636;11.750;2022-12-07T01:03:52;2.80;86.20
73137;DHT22;62977;45.636;11.750;2022-12-07T01:06:19;2.70;86.30
73137;DHT22;62977;45.636;11.750;2022-12-07T01:08:45;2.70;86.70
73137;DHT22;62977;45.636;11.750;2022-12-07T01:11:17;2.70;86.90
73137;DHT22;62977;45.636;11.750;2022-12-07T01:13:44;2.90;86.80
73137;DHT22;62977;45.636;11.750;2022-12-07T01:16:12;3.20;86.70
73137;DHT22;62977;45.636;11.750;2022-12-07T01:18:39;3.20;86.30
73137;DHT22;62977;45.636;11.750;2022-12-07T01:21:11;3.20;86.20
73137;DHT22;62977;45.636;11.750;2022-12-07T01:23:37;2.80;85.80
73137;DHT22;62977;45.636;11.750;2022-12-07T01:26:06;3.10;86.20
73137;DHT22;62977;45.636;11.750;2022-12-07T01:28:31;2.90;85.90
73137;DHT22;62977;45.636;11.750;2022-12-07T01:31:00;3.20;86.10
73137;DHT22;62977;45.636;11.750;2022-12-07T01:33:31;3.00;85.70
73137;DHT22;62977;45.636;11.750;2022-12-07T01:36:08;3.00;86.00
73137;DHT22;62977;45.636;11.750;2022-12-07T01:38:37;3.00;85.90
73137;DHT22;62977;45.636;11.750;2022-12-07T01:41:03;3.20;85.50
73137;DHT22;62977;45.636;11.750;2022-12-07T01:43:33;3.00;85.70
73137;DHT22;62977;45.636;11.750;2022-12-07T01:46:00;3.10;86.00
73137;DHT22;62977;45.636;11.750;2022-12-07T01:48:29;2.90;85.70
73137;DHT22;62977;45.636;11.750;2022-12-07T01:51:00;3.10;85.50
73137;DHT22;62977;45.636;11.750;2022-12-07T01:53:29;3.10;85.40
73137;DHT22;62977;45.636;11.750;2022-12-07T01:55:56;3.30;85.30
73137;DHT22;62977;45.636;11.750;2022-12-07T01:58:23;3.10;84.90
73137;DHT22;62977;45.636;11.750;2022-12-07T02:00:49;3.30;84.80
73137;DHT22;62977;45.636;11.750;2022-12-07T02:03:29;3.30;84.60
73137;DHT22;62977;45.636;11.750;2022-12-07T02:05:58;3.20;85.30
73137;DHT22;62977;45.636;11.750;2022-12-07T02:08:24;3.00;85.20
73137;DHT22;62977;45.636;11.750;2022-12-07T02:10:50;3.30;85.40
73137;DHT22;62977;45.636;11.750;2022-12-07T02:13:21;3.10;84.80
73137;DHT22;62977;45.636;11.750;2022-12-07T02:18:55;2.80;85.00
73137;DHT22;62977;45.636;11.750;2022-12-07T02:21:45;2.30;85.30
73137;DHT22;62977;45.636;11.750;2022-12-07T02:25:07;2.40;85.90
73137;DHT22;62977;45.636;11.750;2022-12-07T02:27:52;2.20;85.60
73137;DHT22;62977;45.636;11.750;2022-12-07T02:30:21;2.40;85.90
73137;DHT22;62977;45.636;11.750;2022-12-07T02:33:14;2.20;85.90
73137;DHT22;62977;45.636;11.750;2022-12-07T02:35:54;2.30;86.00
73137;DHT22;62977;45.636;11.750;2022-12-07T02:38:55;2.30;86.30
73137;DHT22;62977;45.636;11.750;2022-12-07T02:41:30;2.30;86.70
73137;DHT22;62977;45.636;11.750;2022-12-07T02:44:01;2.30;86.50
73137;DHT22;62977;45.636;11.750;2022-12-07T02:46:36;2.30;86.20
73137;DHT22;62977;45.636;11.750;2022-12-07T02:49:03;2.30;86.00
73137;DHT22;62977;45.636;11.750;2022-12-07T02:51:33;2.30;85.60
73137;DHT22;62977;45.636;11.750;2022-12-07T02:53:59;2.50;86.00
73137;DHT22;62977;45.636;11.750;2022-12-07T03:13:19;2.90;85.70
73137;DHT22;62977;45.636;11.750;2022-12-07T03:16:21;2.70;85.50
73137;DHT22;62977;45.636;11.750;2022-12-07T03:18:49;2.70;85.50
73137;DHT22;62977;45.636;11.750;2022-12-07T03:21:21;2.70;85.70
73137;DHT22;62977;45.636;11.750;2022-12-07T03:23:51;2.50;85.60
73137;DHT22;62977;45.636;11.750;2022-12-07T03:26:19;2.60;85.70
73137;DHT22;62977;45.636;11.750;2022-12-07T03:28:52;2.70;85.70
73137;DHT22;62977;45.636;11.750;2022-12-07T03:31:33;2.80;86.10
73137;DHT22;62977;45.636;11.750;2022-12-07T03:34:04;2.90;85.80
73137;DHT22;62977;45.636;11.750;2022-12-07T03:39:26;2.70;86.10
73137;DHT22;62977;45.636;11.750;2022-12-07T03:41:56;2.70;86.00
73137;DHT22;62977;45.636;11.750;2022-12-07T03:44:22;2.80;86.20
73137;DHT22;62977;45.636;11.750;2022-12-07T03:50:02;2.80;86.20
73137;DHT22;62977;45.636;11.750;2022-12-07T03:52:49;2.80;85.70
73137;DHT22;62977;45.636;11.750;2022-12-07T03:55:23;2.90;85.60
73137;DHT22;62977;45.636;11.750;2022-12-07T03:57:54;2.80;86.00
73137;DHT22;62977;45.636;11.750;2022-12-07T04:00:21;2.60;86.00
73137;DHT22;62977;45.636;11.750;2022-12-07T04:02:47;2.80;86.20
73137;DHT22;62977;45.636;11.750;2022-12-07T04:05:12;2.60;85.70
73137;DHT22;62977;45.636;11.750;2022-12-07T04:07:38;2.80;85.50
73137;DHT22;62977;45.636;11.750;2022-12-07T04:10:05;2.80;85.60
73137;DHT22;62977;45.636;11.750;2022-12-07T04:12:30;2.90;85.50
73137;DHT22;62977;45.636;11.750;2022-12-07T04:14:56;3.00;85.50
73137;DHT22;62977;45.636;11.750;2022-12-07T04:17:22;2.90;85.40
73137;DHT22;62977;45.636;11.750;2022-12-07T04:19:47;2.90;85.30
73137;DHT22;62977;45.636;11.750;2022-12-07T04:22:13;2.80;85.30
73137;DHT22;62977;45.636;11.750;2022-12-07T04:24:39;2.70;85.00
73137;DHT22;62977;45.636;11.750;2022-12-07T04:27:04;2.90;85.10
73137;DHT22;62977;45.636;11.750;2022-12-07T04:29:30;3.00;85.10
73137;DHT22;62977;45.636;11.750;2022-12-07T04:31:56;2.90;84.80
73137;DHT22;62977;45.636;11.750;2022-12-07T04:34:22;2.90;84.70
73137;DHT22;62977;45.636;11.750;2022-12-07T04:36:48;2.90;84.60
73137;DHT22;62977;45.636;11.750;2022-12-07T04:39:28;2.90;84.70
73137;DHT22;62977;45.636;11.750;2022-12-07T04:41:55;3.00;84.60
73137;DHT22;62977;45.636;11.750;2022-12-07T04:44:21;2.90;84.80
73137;DHT22;62977;45.636;11.750;2022-12-07T04:46:47;2.80;84.80
73137;DHT22;62977;45.636;11.750;2022-12-07T04:49:14;2.70;84.90
73137;DHT22;62977;45.636;11.750;2022-12-07T04:51:41;2.50;85.10
73137;DHT22;62977;45.636;11.750;2022-12-07T04:54:07;2.60;85.10
73137;DHT22;62977;45.636;11.750;2022-12-07T04:56:33;2.80;85.20
73137;DHT22;62977;45.636;11.750;2022-12-07T04:59:01;3.00;85.20
73137;DHT22;62977;45.636;11.750;2022-12-07T05:01:27;2.60;85.10
73137;DHT22;62977;45.636;11.750;2022-12-07T05:03:53;2.50;85.00
73137;DHT22;62977;45.636;11.750;2022-12-07T05:06:19;2.90;84.90
73137;DHT22;62977;45.636;11.750;2022-12-07T05:08:45;3.00;85.00
73137;DHT22;62977;45.636;11.750;2022-12-07T05:11:11;2.60;84.90
73137;DHT22;62977;45.636;11.750;2022-12-07T05:14:01;2.70;84.60
73137;DHT22;62977;45.636;11.750;2022-12-07T05:16:27;2.80;84.50
73137;DHT22;62977;45.636;11.750;2022-12-07T05:18:53;2.70;84.70
73137;DHT22;62977;45.636;11.750;2022-12-07T05:21:19;2.70;84.60
73137;DHT22;62977;45.636;11.750;2022-12-07T05:23:44;2.70;84.80
73137;DHT22;62977;45.636;11.750;2022-12-07T05:26:10;2.60;84.70
73137;DHT22;62977;45.636;11.750;2022-12-07T05:28:36;2.50;84.80
73137;DHT22;62977;45.636;11.750;2022-12-07T05:31:02;2.70;84.80
73137;DHT22;62977;45.636;11.750;2022-12-07T05:33:27;2.80;84.80
73137;DHT22;62977;45.636;11.750;2022-12-07T05:35:53;2.60;84.80
73137;DHT22;62977;45.636;11.750;2022-12-07T05:38:18;2.80;84.80
73137;DHT22;62977;45.636;11.750;2022-12-07T05:40:44;2.80;84.80
73137;DHT22;62977;45.636;11.750;2022-12-07T05:43:10;2.70;84.60
73137;DHT22;62977;45.636;11.750;2022-12-07T05:45:36;2.80;84.30
73137;DHT22;62977;45.636;11.750;2022-12-07T05:48:02;2.80;84.50
73137;DHT22;62977;45.636;11.750;2022-12-07T05:50:27;2.60;84.30
73137;DHT22;62977;45.636;11.750;2022-12-07T05:52:53;2.70;84.60
73137;DHT22;62977;45.636;11.750;2022-12-07T05:55:19;2.80;84.70
73137;DHT22;62977;45.636;11.750;2022-12-07T05:57:45;2.40;84.50
73137;DHT22;62977;45.636;11.750;2022-12-07T06:00:31;2.30;85.10
73137;DHT22;62977;45.636;11.750;2022-12-07T06:02:57;2.40;85.20
73137;DHT22;62977;45.636;11.750;2022-12-07T06:05:22;2.70;85.10
73137;DHT22;62977;45.636;11.750;2022-12-07T06:07:48;2.50;85.20
73137;DHT22;62977;45.636;11.750;2022-12-07T06:10:14;2.80;84.50
73137;DHT22;62977;45.636;11.750;2022-12-07T06:12:39;2.70;84.10
73137;DHT22;62977;45.636;11.750;2022-12-07T06:15:09;3.10;84.00
73137;DHT22;62977;45.636;11.750;2022-12-07T06:17:36;3.00;83.90
73137;DHT22;62977;45.636;11.750;2022-12-07T06:20:03;2.90;83.90
73137;DHT22;62977;45.636;11.750;2022-12-07T06:22:28;2.80;84.00
73137;DHT22;62977;45.636;11.750;2022-12-07T06:24:54;2.90;83.90
73137;DHT22;62977;45.636;11.750;2022-12-07T06:27:20;3.00;84.00
73137;DHT22;62977;45.636;11.750;2022-12-07T06:29:45;2.80;83.60
73137;DHT22;62977;45.636;11.750;2022-12-07T06:32:11;2.90;83.80
73137;DHT22;62977;45.636;11.750;2022-12-07T06:34:37;3.20;83.80
73137;DHT22;62977;45.636;11.750;2022-12-07T06:37:03;3.00;83.90
73137;DHT22;62977;45.636;11.750;2022-12-07T06:39:29;3.10;83.60
73137;DHT22;62977;45.636;11.750;2022-12-07T06:41:55;3.10;83.70
73137;DHT22;62977;45.636;11.750;2022-12-07T06:44:21;3.00;83.90
73137;DHT22;62977;45.636;11.750;2022-12-07T06:46:48;3.00;84.10
73137;DHT22;62977;45.636;11.750;2022-12-07T06:49:14;3.10;84.00
73137;DHT22;62977;45.636;11.750;2022-12-07T06:51:40;3.00;83.50
73137;DHT22;62977;45.636;11.750;2022-12-07T06:54:08;3.30;83.30
73137;DHT22;62977;45.636;11.750;2022-12-07T06:56:34;3.40;82.50
73137;DHT22;62977;45.636;11.750;2022-12-07T06:58:59;3.60;81.80
73137;DHT22;62977;45.636;11.750;2022-12-07T07:01:25;3.80;81.40
73137;DHT22;62977;45.636;11.750;2022-12-07T07:03:51;3.90;80.10
73137;DHT22;62977;45.636;11.750;2022-12-07T07:06:18;4.20;79.60
73137;DHT22;62977;45.636;11.750;2022-12-07T07:08:43;4.50;79.30
73137;DHT22;62977;45.636;11.750;2022-12-07T07:11:11;4.30;79.70
73137;DHT22;62977;45.636;11.750;2022-12-07T07:13:37;4.50;80.00
73137;DHT22;62977;45.636;11.750;2022-12-07T07:16:03;4.50;80.00
73137;DHT22;62977;45.636;11.750;2022-12-07T07:18:29;4.50;80.10
73137;DHT22;62977;45.636;11.750;2022-12-07T07:20:55;4.50;80.00
73137;DHT22;62977;45.636;11.750;2022-12-07T07:23:21;4.50;80.30
73137;DHT22;62977;45.636;11.750;2022-12-07T07:25:48;4.50;80.20
73137;DHT22;62977;45.636;11.750;2022-12-07T07:28:14;4.60;80.30
73137;DHT22;62977;45.636;11.750;2022-12-07T07:30:40;4.40;80.40
73137;DHT22;62977;45.636;11.750;2022-12-07T07:33:06;4.50;80.80
73137;DHT22;62977;45.636;11.750;2022-12-07T07:35:33;4.30;80.50
73137;DHT22;62977;45.636;11.750;2022-12-07T07:38:00;4.40;80.20
73137;DHT22;62977;45.636;11.750;2022-12-07T07:40:26;4.60;80.50
73137;DHT22;62977;45.636;11.750;2022-12-07T07:42:53;4.30;80.60
73137;DHT22;62977;45.636;11.750;2022-12-07T07:45:21;4.40;80.50
73137;DHT22;62977;45.636;11.750;2022-12-07T07:47:48;4.70;80.80
73137;DHT22;62977;45.636;11.750;2022-12-07T07:50:14;4.50;80.50
73137;DHT22;62977;45.636;11.750;2022-12-07T07:52:40;4.60;81.00
73137;DHT22;62977;45.636;11.750;2022-12-07T07:55:06;4.90;81.20
73137;DHT22;62977;45.636;11.750;2022-12-07T07:57:36;4.70;81.30
73137;DHT22;62977;45.636;11.750;2022-12-07T08:00:08;4.80;81.20
73137;DHT22;62977;45.636;11.750;2022-12-07T08:02:34;4.70;81.30
73137;DHT22;62977;45.636;11.750;2022-12-07T08:04:59;4.60;81.20
73137;DHT22;62977;45.636;11.750;2022-12-07T08:07:27;4.70;81.50
73137;DHT22;62977;45.636;11.750;2022-12-07T08:09:53;4.60;81.70
73137;DHT22;62977;45.636;11.750;2022-12-07T08:12:18;4.50;81.60
73137;DHT22;62977;45.636;11.750;2022-12-07T08:14:44;4.30;82.00
73137;DHT22;62977;45.636;11.750;2022-12-07T08:17:10;4.30;82.20
73137;DHT22;62977;45.636;11.750;2022-12-07T08:19:35;4.50;82.40
73137;DHT22;62977;45.636;11.750;2022-12-07T08:22:02;4.30;82.20
73137;DHT22;62977;45.636;11.750;2022-12-07T08:24:27;4.20;82.00
73137;DHT22;62977;45.636;11.750;2022-12-07T08:26:53;4.30;82.40
73137;DHT22;62977;45.636;11.750;2022-12-07T08:29:19;4.50;82.30
73137;DHT22;62977;45.636;11.750;2022-12-07T08:31:45;4.60;82.40
73137;DHT22;62977;45.636;11.750;2022-12-07T08:34:11;4.70;81.80
73137;DHT22;62977;45.636;11.750;2022-12-07T08:36:37;4.60;82.00
73137;DHT22;62977;45.636;11.750;2022-12-07T08:39:03;4.70;81.90
73137;DHT22;62977;45.636;11.750;2022-12-07T08:41:29;4.90;81.80
73137;DHT22;62977;45.636;11.750;2022-12-07T08:43:55;5.00;81.90
73137;DHT22;62977;45.636;11.750;2022-12-07T08:49:35;5.20;81.60
73137;DHT22;62977;45.636;11.750;2022-12-07T08:52:04;5.60;81.20
73137;DHT22;62977;45.636;11.750;2022-12-07T08:54:30;5.60;80.90
73137;DHT22;62977;45.636;11.750;2022-12-07T08:56:56;5.70;80.80
73137;DHT22;62977;45.636;11.750;2022-12-07T08:59:22;5.90;80.50
73137;DHT22;62977;45.636;11.750;2022-12-07T09:01:48;6.00;80.60
73137;DHT22;62977;45.636;11.750;2022-12-07T09:04:14;6.20;80.40
73137;DHT22;62977;45.636;11.750;2022-12-07T09:06:41;6.50;81.10
73137;DHT22;62977;45.636;11.750;2022-12-07T09:09:07;6.60;81.30
73137;DHT22;62977;45.636;11.750;2022-12-07T09:11:34;6.50;80.20
73137;DHT22;62977;45.636;11.750;2022-12-07T09:13:59;6.90;80.00
73137;DHT22;62977;45.636;11.750;2022-12-07T09:16:25;7.00;79.80
73137;DHT22;62977;45.636;11.750;2022-12-07T09:18:51;7.20;78.90
73137;DHT22;62977;45.636;11.750;2022-12-07T09:21:16;7.20;78.50
73137;DHT22;62977;45.636;11.750;2022-12-07T09:23:42;7.50;78.10
73137;DHT22;62977;45.636;11.750;2022-12-07T09:26:08;8.20;77.80
73137;DHT22;62977;45.636;11.750;2022-12-07T09:28:34;9.10;76.40
73137;DHT22;62977;45.636;11.750;2022-12-07T09:31:00;9.60;76.10
73137;DHT22;62977;45.636;11.750;2022-12-07T09:33:25;10.00;74.50
73137;DHT22;62977;45.636;11.750;2022-12-07T09:35:53;10.50;72.30
73137;DHT22;62977;45.636;11.750;2022-12-07T09:38:19;10.60;72.80
73137;DHT22;62977;45.636;11.750;2022-12-07T09:40:45;11.10;72.70
73137;DHT22;62977;45.636;11.750;2022-12-07T09:43:22;11.60;72.70
73137;DHT22;62977;45.636;11.750;2022-12-07T09:45:52;12.00;72.30
73137;DHT22;62977;45.636;11.750;2022-12-07T09:48:22;12.10;70.90
73137;DHT22;62977;45.636;11.750;2022-12-07T09:50:50;12.30;71.40
73137;DHT22;62977;45.636;11.750;2022-12-07T09:53:26;12.60;70.90
73137;DHT22;62977;45.636;11.750;2022-12-07T09:55:54;12.70;64.70
73137;DHT22;62977;45.636;11.750;2022-12-07T09:58:23;13.30;62.90
73137;DHT22;62977;45.636;11.750;2022-12-07T10:00:57;13.20;62.50
73137;DHT22;62977;45.636;11.750;2022-12-07T10:03:26;13.60;63.60
73137;DHT22;62977;45.636;11.750;2022-12-07T10:05:52;13.70;61.40
73137;DHT22;62977;45.636;11.750;2022-12-07T10:08:19;14.20;60.80
73137;DHT22;62977;45.636;11.750;2022-12-07T10:10:46;14.10;59.80
73137;DHT22;62977;45.636;11.750;2022-12-07T10:13:17;14.00;60.50
73137;DHT22;62977;45.636;11.750;2022-12-07T10:15:55;14.50;61.50
73137;DHT22;62977;45.636;11.750;2022-12-07T10:18:39;14.30;59.10
73137;DHT22;62977;45.636;11.750;2022-12-07T10:21:18;14.70;60.50
73137;DHT22;62977;45.636;11.750;2022-12-07T10:24:14;14.70;57.90
73137;DHT22;62977;45.636;11.750;2022-12-07T10:31:57;15.20;58.50
73137;DHT22;62977;45.636;11.750;2022-12-07T10:34:26;15.40;57.40
73137;DHT22;62977;45.636;11.750;2022-12-07T10:36:53;15.70;55.20
73137;DHT22;62977;45.636;11.750;2022-12-07T10:39:21;15.90;55.60
73137;DHT22;62977;45.636;11.750;2022-12-07T10:42:03;15.40;57.50
73137;DHT22;62977;45.636;11.750;2022-12-07T10:44:33;15.70;55.70
73137;DHT22;62977;45.636;11.750;2022-12-07T11:01:29;15.10;55.10
73137;DHT22;62977;45.636;11.750;2022-12-07T11:07:04;15.30;54.80
73137;DHT22;62977;45.636;11.750;2022-12-07T11:17:56;15.70;54.60
73137;DHT22;62977;45.636;11.750;2022-12-07T11:20:44;15.90;53.90
73137;DHT22;62977;45.636;11.750;2022-12-07T11:23:49;15.80;52.50
73137;DHT22;62977;45.636;11.750;2022-12-07T11:34:54;16.50;48.40
73137;DHT22;62977;45.636;11.750;2022-12-07T11:37:27;16.40;51.00
73137;DHT22;62977;45.636;11.750;2022-12-07T11:40:03;16.10;50.40
73137;DHT22;62977;45.636;11.750;2022-12-07T11:42:36;16.40;51.90
73137;DHT22;62977;45.636;11.750;2022-12-07T11:45:19;17.30;49.90
73137;DHT22;62977;45.636;11.750;2022-12-07T11:47:54;17.70;48.90
73137;DHT22;62977;45.636;11.750;2022-12-07T11:55:45;18.20;43.80
73137;DHT22;62977;45.636;11.750;2022-12-07T12:00:44;18.30;44.10
73137;DHT22;62977;45.636;11.750;2022-12-07T12:03:20;18.80;43.10
73137;DHT22;62977;45.636;11.750;2022-12-07T12:05:48;19.10;43.60
73137;DHT22;62977;45.636;11.750;2022-12-07T12:08:20;19.10;41.70
73137;DHT22;62977;45.636;11.750;2022-12-07T12:21:41;20.40;42.20
73137;DHT22;62977;45.636;11.750;2022-12-07T12:24:18;20.20;41.50
73137;DHT22;62977;45.636;11.750;2022-12-07T12:26:52;19.50;41.30
73137;DHT22;62977;45.636;11.750;2022-12-07T12:32:14;20.50;40.90
73137;DHT22;62977;45.636;11.750;2022-12-07T12:42:46;20.90;40.00
73137;DHT22;62977;45.636;11.750;2022-12-07T12:45:28;20.70;39.70
73137;DHT22;62977;45.636;11.750;2022-12-07T12:50:31;21.30;38.00
73137;DHT22;62977;45.636;11.750;2022-12-07T13:03:54;21.70;37.30
73137;DHT22;62977;45.636;11.750;2022-12-07T13:06:35;21.70;37.90
73137;DHT22;62977;45.636;11.750;2022-12-07T13:09:01;22.10;35.70
73137;DHT22;62977;45.636;11.750;2022-12-07T13:11:41;22.30;36.60
73137;DHT22;62977;45.636;11.750;2022-12-07T13:20:03;22.60;35.80
73137;DHT22;62977;45.636;11.750;2022-12-07T13:25:36;21.80;37.00
73137;DHT22;62977;45.636;11.750;2022-12-07T13:28:35;22.30;35.90
73137;DHT22;62977;45.636;11.750;2022-12-07T13:31:14;21.70;35.90
73137;DHT22;62977;45.636;11.750;2022-12-07T13:33:45;21.70;36.30
73137;DHT22;62977;45.636;11.750;2022-12-07T13:36:25;21.50;36.60
73137;DHT22;62977;45.636;11.750;2022-12-07T13:41:27;21.50;36.60
73137;DHT22;62977;45.636;11.750;2022-12-07T13:46:40;20.70;38.40
73137;DHT22;62977;45.636;11.750;2022-12-07T13:49:20;19.90;40.60
73137;DHT22;62977;45.636;11.750;2022-12-07T13:51:47;19.30;41.90
73137;DHT22;62977;45.636;11.750;2022-12-07T13:54:13;18.30;44.20
73137;DHT22;62977;45.636;11.750;2022-12-07T13:56:39;17.30;47.60
73137;DHT22;62977;45.636;11.750;2022-12-07T13:59:25;16.50;48.20
73137;DHT22;62977;45.636;11.750;2022-12-07T14:01:53;15.90;50.20
73137;DHT22;62977;45.636;11.750;2022-12-07T14:04:34;15.50;51.60
73137;DHT22;62977;45.636;11.750;2022-12-07T14:07:01;15.30;53.50
73137;DHT22;62977;45.636;11.750;2022-12-07T14:09:57;15.10;53.90
73137;DHT22;62977;45.636;11.750;2022-12-07T14:12:24;14.50;55.80
73137;DHT22;62977;45.636;11.750;2022-12-07T14:14:50;14.30;54.90
73137;DHT22;62977;45.636;11.750;2022-12-07T14:17:20;14.10;56.80
73137;DHT22;62977;45.636;11.750;2022-12-07T14:22:29;13.40;63.40
73137;DHT22;62977;45.636;11.750;2022-12-07T14:25:00;13.20;70.30
73137;DHT22;62977;45.636;11.750;2022-12-07T14:27:32;13.60;70.50
73137;DHT22;62977;45.636;11.750;2022-12-07T14:30:03;15.10;62.10
73137;DHT22;62977;45.636;11.750;2022-12-07T14:32:31;15.80;57.60
73137;DHT22;62977;45.636;11.750;2022-12-07T14:35:11;16.00;56.80
73137;DHT22;62977;45.636;11.750;2022-12-07T14:37:39;15.70;57.60
73137;DHT22;62977;45.636;11.750;2022-12-07T14:40:05;15.00;60.90
73137;DHT22;62977;45.636;11.750;2022-12-07T14:42:32;14.50;62.40
73137;DHT22;62977;45.636;11.750;2022-12-07T14:44:58;14.30;63.60
73137;DHT22;62977;45.636;11.750;2022-12-07T14:47:26;13.70;70.00
73137;DHT22;62977;45.636;11.750;2022-12-07T14:49:52;13.50;70.60
73137;DHT22;62977;45.636;11.750;2022-12-07T14:52:24;13.40;71.10
73137;DHT22;62977;45.636;11.750;2022-12-07T14:54:52;13.30;71.00
73137;DHT22;62977;45.636;11.750;2022-12-07T14:57:18;12.90;71.80
73137;DHT22;62977;45.636;11.750;2022-12-07T14:59:44;12.60;73.40
73137;DHT22;62977;45.636;11.750;2022-12-07T15:02:12;12.40;74.00
73137;DHT22;62977;45.636;11.750;2022-12-07T15:04:38;12.30;73.90
73137;DHT22;62977;45.636;11.750;2022-12-07T15:07:05;12.20;74.00
73137;DHT22;62977;45.636;11.750;2022-12-07T15:09:31;12.20;74.00
73137;DHT22;62977;45.636;11.750;2022-12-07T15:11:57;12.20;74.40
73137;DHT22;62977;45.636;11.750;2022-12-07T15:14:22;12.10;74.40
73137;DHT22;62977;45.636;11.750;2022-12-07T15:16:48;12.00;74.70
73137;DHT22;62977;45.636;11.750;2022-12-07T15:19:19;12.00;74.40
73137;DHT22;62977;45.636;11.750;2022-12-07T15:21:48;11.90;74.70
73137;DHT22;62977;45.636;11.750;2022-12-07T15:24:14;11.80;74.90
73137;DHT22;62977;45.636;11.750;2022-12-07T15:26:40;11.80;74.90
73137;DHT22;62977;45.636;11.750;2022-12-07T15:29:07;11.80;75.00
73137;DHT22;62977;45.636;11.750;2022-12-07T15:31:33;11.70;75.10
73137;DHT22;62977;45.636;11.750;2022-12-07T15:33:59;11.60;75.20
73137;DHT22;62977;45.636;11.750;2022-12-07T15:36:27;11.50;75.40
73137;DHT22;62977;45.636;11.750;2022-12-07T15:38:54;11.40;75.60
73137;DHT22;62977;45.636;11.750;2022-12-07T15:41:20;11.40;75.80
73137;DHT22;62977;45.636;11.750;2022-12-07T15:43:46;11.30;75.80
73137;DHT22;62977;45.636;11.750;2022-12-07T15:46:35;11.20;76.00
73137;DHT22;62977;45.636;11.750;2022-12-07T15:49:01;11.00;76.20
73137;DHT22;62977;45.636;11.750;2022-12-07T15:51:27;10.70;76.70
73137;DHT22;62977;45.636;11.750;2022-12-07T15:53:53;10.40;76.90
73137;DHT22;62977;45.636;11.750;2022-12-07T15:56:19;10.40;77.00
73137;DHT22;62977;45.636;11.750;2022-12-07T15:58:45;10.30;77.20
73137;DHT22;62977;45.636;11.750;2022-12-07T16:01:16;10.40;77.30
73137;DHT22;62977;45.636;11.750;2022-12-07T16:03:42;10.30;77.30
73137;DHT22;62977;45.636;11.750;2022-12-07T16:06:09;10.00;77.50
73137;DHT22;62977;45.636;11.750;2022-12-07T16:08:34;9.90;77.80
73137;DHT22;62977;45.636;11.750;2022-12-07T16:11:05;9.70;78.30
73137;DHT22;62977;45.636;11.750;2022-12-07T16:13:31;9.60;78.30
73137;DHT22;62977;45.636;11.750;2022-12-07T16:15:56;9.50;78.60
73137;DHT22;62977;45.636;11.750;2022-12-07T16:18:22;9.60;78.40
73137;DHT22;62977;45.636;11.750;2022-12-07T16:20:48;9.60;78.40
73137;DHT22;62977;45.636;11.750;2022-12-07T16:23:15;9.50;78.70
73137;DHT22;62977;45.636;11.750;2022-12-07T16:25:41;9.50;78.60
73137;DHT22;62977;45.636;11.750;2022-12-07T16:28:07;9.40;78.80
73137;DHT22;62977;45.636;11.750;2022-12-07T16:30:33;9.40;78.70
73137;DHT22;62977;45.636;11.750;2022-12-07T16:32:59;9.20;79.10
73137;DHT22;62977;45.636;11.750;2022-12-07T16:35:25;9.10;79.30
73137;DHT22;62977;45.636;11.750;2022-12-07T16:37:50;9.10;79.20
73137;DHT22;62977;45.636;11.750;2022-12-07T16:40:16;8.90;79.30
73137;DHT22;62977;45.636;11.750;2022-12-07T16:42:42;8.90;79.90
73137;DHT22;62977;45.636;11.750;2022-12-07T16:45:08;8.90;79.70
73137;DHT22;62977;45.636;11.750;2022-12-07T16:47:37;8.80;79.80
73137;DHT22;62977;45.636;11.750;2022-12-07T16:50:03;8.80;79.70
73137;DHT22;62977;45.636;11.750;2022-12-07T16:52:29;8.90;79.60
73137;DHT22;62977;45.636;11.750;2022-12-07T16:54:55;8.80;79.70
73137;DHT22;62977;45.636;11.750;2022-12-07T16:57:20;8.80;79.70
73137;DHT22;62977;45.636;11.750;2022-12-07T16:59:46;8.80;79.80
73137;DHT22;62977;45.636;11.750;2022-12-07T17:02:12;8.80;79.80
73137;DHT22;62977;45.636;11.750;2022-12-07T17:04:38;8.70;79.80
73137;DHT22;62977;45.636;11.750;2022-12-07T17:07:08;8.70;79.70
73137;DHT22;62977;45.636;11.750;2022-12-07T17:09:34;8.70;79.80
73137;DHT22;62977;45.636;11.750;2022-12-07T17:12:00;8.60;80.00
73137;DHT22;62977;45.636;11.750;2022-12-07T17:14:26;8.60;80.20
73137;DHT22;62977;45.636;11.750;2022-12-07T17:17:11;8.40;80.30
73137;DHT22;62977;45.636;11.750;2022-12-07T17:19:36;8.60;80.30
73137;DHT22;62977;45.636;11.750;2022-12-07T17:22:02;8.50;80.10
73137;DHT22;62977;45.636;11.750;2022-12-07T17:24:28;8.50;79.90
73137;DHT22;62977;45.636;11.750;2022-12-07T17:26:54;8.40;80.20
73137;DHT22;62977;45.636;11.750;2022-12-07T17:29:19;8.30;80.00
73137;DHT22;62977;45.636;11.750;2022-12-07T17:31:47;8.20;80.30
73137;DHT22;62977;45.636;11.750;2022-12-07T17:34:14;8.00;80.70
73137;DHT22;62977;45.636;11.750;2022-12-07T17:36:41;7.90;80.40
73137;DHT22;62977;45.636;11.750;2022-12-07T17:39:08;7.90;80.70
73137;DHT22;62977;45.636;11.750;2022-12-07T17:41:36;7.90;80.70
73137;DHT22;62977;45.636;11.750;2022-12-07T17:44:20;7.80;80.80